Terminal Aerodrome Forecast
Issued by NWS Tampa Bay Area, FL

Home | Current Version | Previous Version | Text Only | Print | Product List | Glossary On
Versions: 1 2 3 4 5 6 7 8 9 10 11 12 13 14 15 16 17 18
000
FTUS42 KTBW 240215 AAA
TAFSRQ
TAF AMD
KSRQ 240215Z 2402/2424 24008KT P6SM SCT010 BKN090
      TEMPO 2402/2406 BKN006
     FM240600 25007KT P6SM BKN007 OVC025
     FM241400 28010KT P6SM SCT015 BKN050
     FM241700 27012KT P6SM FEW040 SCT250=

USA.gov is the U.S. government's official web portal to all federal, state and local government web resources and services.